Terminal Aerodrome Forecast
Issued by NWS Sioux Falls, SD

Home | Current Version | Previous Version | Text Only | Print | Product List | Glossary Off
Versions: 1 2 3 4 5 6 7 8 9 10 11 12 13 14 15 16

000
FTUS43 KFSD 170800 AAA
TAFHON
TAF AMD
KHON 170808Z 1708/1806 VRB03KT P6SM SKC
      TEMPO 1708/1710 4SM BR FEW006
     FM171000 VRB03KT P6SM BKN007
     FM171500 VRB03KT P6SM SCT020
     FM171800 VRB03KT P6SM SCT035=

USA.gov is the U.S. government's official web portal to all federal, state and local government web resources and services.